createdAt,value
2023-03-26T00:04:10.600Z,1.0936454849498327
2023-03-26T00:10:31.225Z,1.588628762541806
2023-03-26T00:16:54.370Z,1.0769230769230769
2023-03-26T00:24:11.308Z,0.6822742474916388
2023-03-26T00:30:31.068Z,0.7859531772575251
2023-03-26T00:36:51.209Z,1.3478260869565217
2023-03-26T00:43:13.866Z,1.1137123745819397
2023-03-26T00:49:33.648Z,0.882943143812709
2023-03-26T00:55:54.288Z,0.7391304347826086
2023-03-26T01:02:15.498Z,0.7658862876254181
2023-03-26T01:08:36.215Z,0.6254180602006689
2023-03-26T01:14:56.958Z,0.6655518394648829
2023-03-26T01:21:17.473Z,0.40468227424749165
2023-03-26T01:27:38.589Z,0.391304347826087
2023-03-26T01:33:58.334Z,0.4180602006688963
2023-03-26T01:40:19.823Z,0.34782608695652173
2023-03-26T01:46:40.897Z,0.7658862876254181
2023-03-26T01:53:02.934Z,0.802675585284281
2023-03-26T01:59:23.351Z,0.6555183946488294
2023-03-26T02:05:42.163Z,0.8595317725752508
2023-03-26T02:12:02.930Z,1.1103678929765886
2023-03-26T02:19:55.071Z,0.7324414715719063
2023-03-26T02:26:16.085Z,0.5819397993311036
2023-03-26T02:32:37.313Z,0.745819397993311
2023-03-26T02:38:57.368Z,0.6287625418060201
2023-03-26T02:46:03.811Z,1.120401337792642
2023-03-26T02:52:24.940Z,0.5618729096989966
2023-03-26T02:58:45.871Z,1.0033444816053512
2023-03-26T03:09:28.957Z,1.431438127090301
2023-03-26T03:15:48.886Z,1.0066889632107023
2023-03-26T03:22:08.310Z,0.6287625418060201
2023-03-26T03:28:30.296Z,0.979933110367893
2023-03-26T03:34:51.451Z,0.6387959866220736
2023-03-26T03:46:44.597Z,0.9130434782608695
2023-03-26T03:53:06.319Z,0.8093645484949833
2023-03-26T03:59:29.173Z,0.745819397993311
2023-03-26T04:05:49.343Z,0.6755852842809364
2023-03-26T04:13:05.799Z,0.919732441471572
2023-03-26T04:19:26.476Z,0.7123745819397993
2023-03-26T04:25:46.934Z,0.7357859531772575
2023-03-26T04:32:07.060Z,0.725752508361204
2023-03-26T04:39:18.884Z,0.6755852842809364
2023-03-26T04:45:38.343Z,0.3177257525083612
2023-03-26T04:51:57.940Z,0.5117056856187291
2023-03-26T04:58:18.180Z,1.2876254180602007
2023-03-26T05:09:31.592Z,0.4983277591973244
2023-03-26T05:15:52.181Z,0.4983277591973244
2023-03-26T05:22:14.574Z,0.3779264214046823
2023-03-26T05:28:33.988Z,0.2976588628762542
2023-03-26T05:34:55.341Z,0.07692307692307693
2023-03-26T05:41:17.521Z,0.19063545150501673
2023-03-26T05:47:41.951Z,0.21070234113712374
2023-03-26T05:54:07.825Z,0.2976588628762542
2023-03-26T06:00:32.251Z,0.822742474916388
2023-03-26T06:08:29.484Z,0.5284280936454849
2023-03-26T06:14:52.993Z,0.3511705685618729
2023-03-26T06:27:40.382Z,0.3311036789297659
2023-03-26T06:40:16.032Z,0.3745819397993311
2023-03-26T06:46:41.061Z,0.7023411371237458
2023-03-26T06:57:03.438Z,0.7892976588628763
2023-03-26T07:04:14.384Z,0.9331103678929766
2023-03-26T07:10:37.070Z,0.6588628762541806
2023-03-26T07:32:27.564Z,0.7725752508361204
2023-03-26T07:38:50.695Z,0.5652173913043478
2023-03-26T07:45:38.015Z,0.7859531772575251
2023-03-26T07:51:59.294Z,1.2842809364548495
2023-03-26T07:58:20.669Z,1.3612040133779264
2023-03-26T08:04:41.980Z,1.4682274247491638
2023-03-26T08:12:28.943Z,1.080267558528428
2023-03-26T08:23:50.681Z,0.9732441471571907
2023-03-26T08:32:07.718Z,1.3879598662207357
2023-03-26T08:38:29.348Z,1.37123745819398
2023-03-26T08:44:50.268Z,1.2006688963210703
2023-03-26T08:53:56.421Z,1.6889632107023411
2023-03-26T09:00:28.696Z,1.2709030100334449
2023-03-26T09:06:52.192Z,1.1270903010033444
2023-03-26T09:16:24.355Z,2.2240802675585285
2023-03-26T09:22:46.221Z,1.3377926421404682
2023-03-26T09:29:11.923Z,1.4448160535117056
2023-03-26T09:40:20.131Z,1.2775919732441472
2023-03-26T09:46:46.192Z,1.842809364548495
2023-03-26T09:53:07.779Z,1.4648829431438126
2023-03-26T09:59:28.639Z,1.0735785953177257
2023-03-26T10:05:50.060Z,1.0334448160535117
2023-03-26T10:12:10.981Z,1.7090301003344481
2023-03-26T10:18:32.016Z,2.020066889632107
2023-03-26T10:24:53.145Z,0.8561872909698997
2023-03-26T10:31:15.016Z,1.1036789297658862
2023-03-26T10:37:36.337Z,2.1270903010033444
2023-03-26T10:44:07.273Z,2.0869565217391304
2023-03-26T10:54:24.929Z,2.2073578595317724
2023-03-26T11:01:16.180Z,2.217391304347826
2023-03-26T11:07:37.982Z,1.9565217391304348
2023-03-26T11:13:59.495Z,1.899665551839465
2023-03-26T11:20:21.231Z,2.5986622073578594
2023-03-26T11:26:43.282Z,2.0100334448160537
2023-03-26T11:34:05.349Z,2.3377926421404682
2023-03-26T11:41:59.875Z,2.1036789297658864
2023-03-26T11:48:21.480Z,1.7892976588628762
2023-03-26T11:54:43.185Z,2.100334448160535
2023-03-26T12:01:06.182Z,2.923076923076923
2023-03-26T12:07:27.526Z,3.7859531772575252
2023-03-26T12:13:49.030Z,2.4381270903010033
2023-03-26T12:20:10.331Z,1.979933110367893
2023-03-26T12:31:34.880Z,3.903010033444816
2023-03-26T12:37:56.033Z,3.17056856187291
2023-03-26T12:44:47.303Z,3.1337792642140467
2023-03-26T12:51:18.634Z,3.411371237458194
2023-03-26T13:04:19.166Z,3.1270903010033444
2023-03-26T13:10:40.746Z,3.448160535117057
2023-03-26T13:17:02.195Z,4.528428093645485
2023-03-26T13:25:27.749Z,2.2642140468227425
2023-03-26T13:31:49.372Z,2.725752508361204
2023-03-26T13:38:10.778Z,2.234113712374582
2023-03-26T13:44:32.351Z,2.5819397993311037
2023-03-26T13:55:28.227Z,2.9130434782608696
2023-03-26T14:02:53.262Z,3.1237458193979935
2023-03-26T14:09:15.018Z,1.2608695652173914
2023-03-26T14:18:00.723Z,1.7190635451505016
2023-03-26T14:24:22.086Z,1.745819397993311
2023-03-26T14:30:44.044Z,2.0869565217391304
2023-03-26T14:37:05.617Z,1.0769230769230769
2023-03-26T14:43:27.299Z,1.7357859531772575
2023-03-26T14:49:48.489Z,1.0367892976588629
2023-03-26T14:56:10.020Z,0.7926421404682275
2023-03-26T15:02:31.930Z,0.5785953177257525
2023-03-26T15:08:53.512Z,1.4080267558528428
2023-03-26T15:15:15.147Z,0.5250836120401338
2023-03-26T15:27:40.389Z,0.8595317725752508
2023-03-26T15:34:02.535Z,2.8929765886287626
2023-03-26T15:40:23.880Z,3.8762541806020065
2023-03-26T16:03:27.116Z,1.3444816053511706
2023-03-26T16:09:48.032Z,0.802675585284281
2023-03-26T16:16:09.041Z,0.3377926421404682
2023-03-26T16:22:30.249Z,1.0367892976588629
2023-03-26T16:28:51.111Z,0.7324414715719063
2023-03-26T16:35:12.456Z,3.0535117056856187
2023-03-26T16:46:33.437Z,2.080267558528428
2023-03-26T16:52:54.481Z,1.725752508361204
2023-03-26T16:59:15.908Z,1.5250836120401339
2023-03-26T17:05:37.574Z,1.9063545150501673
2023-03-26T17:12:00.556Z,2.240802675585284
2023-03-26T17:18:25.217Z,2.7725752508361206
2023-03-26T17:30:33.885Z,4.177257525083612
2023-03-26T17:36:55.614Z,5.381270903010034
2023-03-26T17:44:21.632Z,2.648829431438127
2023-03-26T17:50:40.986Z,1.0434782608695652
2023-03-26T17:57:03.050Z,0.8060200668896321
2023-03-26T18:03:23.887Z,2.036789297658863
2023-03-26T18:09:42.962Z,2.6354515050167224
2023-03-26T18:22:16.842Z,3.632107023411371
2023-03-26T18:28:40.063Z,3.230769230769231
2023-03-26T18:35:00.781Z,2.709030100334448
2023-03-26T18:41:21.295Z,2.4983277591973243
2023-03-26T18:47:41.709Z,2.678929765886288
2023-03-26T18:54:02.373Z,2.2441471571906355
2023-03-26T19:05:30.386Z,2.317725752508361
2023-03-26T19:11:50.714Z,2.1337792642140467
2023-03-26T19:18:11.772Z,1.1839464882943145
2023-03-26T19:24:32.016Z,1.2575250836120402
2023-03-26T19:30:54.344Z,0.7658862876254181
2023-03-26T19:37:14.297Z,1.0869565217391304
2023-03-26T19:43:34.291Z,0.5886287625418061
2023-03-26T19:49:53.700Z,1.0367892976588629
2023-03-26T19:59:17.573Z,0.6187290969899666
2023-03-26T20:07:48.430Z,1.826086956521739
2023-03-26T20:14:07.014Z,0.44481605351170567
2023-03-26T20:20:27.013Z,0.8729096989966555
2023-03-26T20:28:47.470Z,0.9297658862876255
2023-03-26T20:35:08.241Z,3.739130434782609
2023-03-26T20:41:29.238Z,4.0
2023-03-26T20:49:27.010Z,1.4481605351170568
2023-03-26T21:05:08.257Z,1.5919732441471572
2023-03-26T21:14:42.498Z,1.862876254180602
2023-03-26T21:21:14.099Z,0.6153846153846154
2023-03-26T21:27:41.291Z,1.3879598662207357
2023-03-26T21:34:00.010Z,0.9698996655518395
2023-03-26T21:42:49.661Z,3.612040133779264
2023-03-26T21:58:39.389Z,0.7190635451505016
2023-03-26T22:04:58.297Z,0.25752508361204013
2023-03-26T22:11:17.217Z,0.3210702341137124
2023-03-26T22:21:17.244Z,0.4013377926421405
2023-03-26T22:27:44.138Z,0.7491638795986622
2023-03-26T22:34:04.259Z,0.48494983277591974
2023-03-26T22:40:22.855Z,0.5317725752508361
2023-03-26T22:50:15.375Z,0.46153846153846156
2023-03-26T22:56:35.729Z,0.5652173913043478
2023-03-26T23:07:15.444Z,0.2508361204013378
2023-03-26T23:13:35.646Z,0.25418060200668896
2023-03-26T23:19:54.360Z,0.3010033444816054
2023-03-26T23:26:13.034Z,0.2508361204013378
2023-03-26T23:33:16.762Z,0.3511705685618729
2023-03-26T23:43:00.688Z,0.3277591973244147
2023-03-26T23:54:41.174Z,0.2608695652173913
